Almena, Wisconsin
Current Conditions -  °F | °C
As of 9:15 PM on Saturday 22 Nov 2014 (Local Time) from KUBE Reporting Station
Haze Haze  
Wind Chill: 28°   Ceiling: 300
Heat Index: 34°   Visibility: 0.75mi
Dew Point: 32°   Wind: 7mph
Humidity: 93%   Direction: 150°SSE
Pressure: 29.61"   Gusts: NA
Location:  45.42°N, 92.03°W
Report Text: KUBE 230315Z AUTO 15006KT 3/4SM BR OVC003 01/00 A2961 RMK AO2
Loading
Personal Weather Stations






























Interactive Weather Map New forecast layout! Learn more

10-Day Weather Forecast

Advertisements
Track Severe Weather on mobile